Date,TemperatureHighF,TemperatureAvgF,TemperatureLowF,DewpointHighF,DewpointAvgF,DewpointLowF,HumidityHigh,HumidityAvg,HumidityLow,PressureMaxIn,PressureMinIn,WindSpeedMaxMPH,WindSpeedAvgMPH,GustSpeedMaxMPH,PrecipitationSumIn
2014-1-1,15.8,12.9,10.0,12.1,6.2,-0.2,85,74,59,30.23,30.08,8,4,0,0.00
2014-1-2,14.5,11.3,2.3,10.8,6.1,-5.8,85,79,68,30.07,29.90,16,7,0,0.00
2014-1-3,16.7,6.2,-4.2,3.8,-3.3,-10.4,76,65,49,30.24,29.98,7,3,0,0.00
2014-1-4,31.1,21.9,12.0,25.2,13.1,2.4,91,69,55,29.97,29.70,13,4,0,0.00
2014-1-5,31.6,28.5,23.4,28.7,26.5,21.4,98,92,86,29.87,29.31,15,2,0,0.00
2014-1-6,21.9,5.6,-15.2,19.7,-0.8,-23.8,91,74,60,29.89,29.32,17,7,0,0.00
2014-1-7,4.1,-7.0,-15.7,-6.7,-15.3,-23.8,75,66,59,30.14,29.88,13,5,0,0.00
2014-1-8,19.8,5.1,-5.8,9.6,-1.3,-10.8,85,75,62,30.32,30.13,6,1,0,0.00
2014-1-9,21.6,4.4,-11.0,19.4,-0.4,-16.9,91,80,73,30.43,30.13,4,0,0,0.00
2014-1-10,38.3,30.7,21.7,35.1,29.1,19.5,98,94,87,30.13,29.67,3,1,0,0.25
2014-1-11,43.0,37.0,33.8,36.8,28.8,-99.9,90,80,1,29.44,29.09,18,-12,0,0.41
2014-1-12,40.3,34.9,32.7,35.6,32.3,30.0,98,90,73,29.74,29.44,12,5,0,0.00
2014-1-13,45.1,38.9,32.5,44.6,38.3,32.0,98,98,94,29.59,29.37,7,3,0,0.00
2014-1-14,42.8,33.6,21.7,36.9,31.2,21.2,98,91,66,29.61,29.47,14,3,0,0.01
2014-1-15,31.3,25.8,16.7,25.1,20.1,14.8,98,79,63,29.81,29.52,14,6,0,0.00
2014-1-16,27.3,23.4,19.0,26.8,22.0,16.4,98,94,87,29.78,29.46,9,4,0,0.00
2014-1-17,35.4,28.4,20.7,30.6,26.3,19.3,98,92,73,29.71,29.44,9,3,0,0.01
2014-1-18,23.4,17.1,12.2,19.8,15.5,10.8,98,94,85,29.76,29.63,10,3,0,0.00
2014-1-19,30.9,22.7,11.5,27.9,21.1,11.0,98,94,72,29.63,29.33,13,4,0,0.00
2014-1-20,28.4,20.5,9.3,27.9,17.0,4.4,98,87,63,29.89,29.32,9,4,0,0.00
2014-1-21,11.1,5.4,-4.2,3.0,-1.4,-7.1,87,73,60,30.01,29.88,10,4,0,0.00
2014-1-22,14.2,3.6,-8.9,9.7,-0.2,-11.5,98,85,58,30.00,29.76,7,1,0,0.00
2014-1-23,16.0,7.3,-3.6,13.3,4.8,-5.1,98,90,68,30.28,29.77,12,2,0,0.00
2014-1-24,15.3,5.5,-5.1,14.8,1.8,-7.1,98,85,65,30.26,29.34,14,5,0,0.00
2014-1-25,26.8,16.3,2.3,26.3,11.9,-4.8,98,84,47,29.58,29.07,14,5,0,0.00
2014-1-26,23.5,11.0,-4.5,23.0,9.7,-6.8,98,94,73,29.59,29.19,7,2,0,0.00
2014-1-27,19.8,7.2,-4.7,19.3,-2.6,-13.2,98,64,43,30.10,29.23,18,8,0,0.00
2014-1-28,10.8,-1.1,-10.3,2.8,-7.2,-12.6,98,77,47,30.16,29.99,10,4,0,0.00
2014-1-29,18.7,6.9,-5.3,9.0,0.6,-12.0,98,76,58,30.00,29.87,17,6,0,0.00
2014-1-30,26.1,17.1,5.7,25.6,11.9,3.2,98,82,58,29.98,29.62,8,4,0,0.00
2014-1-31,35.1,29.7,26.1,34.6,27.0,20.6,98,90,65,29.96,29.65,7,2,0,0.04
2014-2-1,33.4,28.5,24.6,32.9,28.0,24.1,98,98,98,29.97,29.61,4,1,0,0.00
2014-2-2,26.6,22.5,15.6,26.1,22.0,15.1,98,98,97,30.09,29.78,0,0,0,0.00
2014-2-3,28.4,14.2,2.8,18.5,10.7,2.4,98,88,55,30.22,30.08,3,0,0,0.00
2014-2-4,27.5,14.3,1.6,19.5,10.5,1.2,98,86,60,30.28,30.00,6,1,0,0.00
2014-2-5,24.1,17.9,5.9,23.6,16.4,5.5,98,94,77,30.18,29.71,13,6,0,0.00
2014-2-6,24.8,11.6,-1.5,19.2,7.9,-2.4,98,86,70,30.18,30.03,9,2,0,0.00
2014-2-7,18.9,7.2,1.6,6.2,0.3,-3.9,98,74,53,30.13,30.06,12,4,0,0.00
2014-2-8,25.3,11.6,-0.8,14.9,6.1,-5.8,98,79,59,30.14,29.99,4,1,0,0.00
2014-2-9,23.7,16.0,7.0,17.5,12.9,6.6,98,88,61,29.99,29.81,8,1,0,0.00
2014-2-10,21.0,15.6,7.7,15.7,10.8,5.7,98,82,57,30.19,29.96,8,3,0,0.00
2014-2-11,16.7,9.5,-0.6,8.0,2.0,-4.0,98,72,54,30.33,30.18,7,2,0,0.00
2014-2-12,23.7,7.2,-9.2,13.0,2.6,-13.0,98,82,60,30.30,29.92,5,1,0,0.00
2014-2-13,28.6,19.5,8.8,18.8,12.3,8.4,98,75,52,29.91,29.35,5,2,0,0.00
2014-2-14,32.0,24.6,20.5,29.5,21.1,15.9,98,87,67,29.59,29.26,13,3,0,0.00
2014-2-15,23.4,14.1,5.0,22.9,8.2,2.2,98,79,52,29.89,29.59,9,3,0,0.00
2014-2-16,23.4,13.7,0.9,21.6,12.3,0.5,98,94,78,30.21,29.77,8,2,0,0.00
2014-2-17,22.3,9.2,-6.5,21.8,4.6,-9.1,98,83,59,30.24,29.43,10,3,0,0.00
2014-2-18,36.9,27.5,16.7,36.4,25.1,16.2,98,92,67,29.81,29.41,15,5,0,0.10
2014-2-19,48.2,35.4,25.2,39.1,31.4,24.7,98,87,48,29.87,29.40,11,3,0,0.09
2014-2-20,37.2,32.1,25.0,36.7,31.6,24.5,98,98,98,29.89,29.25,7,2,0,0.60
2014-2-21,44.2,36.1,30.6,43.7,29.8,16.8,98,79,56,29.56,29.20,17,7,0,0.00
2014-2-22,39.4,33.9,30.2,32.1,17.5,7.7,91,53,34,29.79,29.55,19,7,0,0.00
2014-2-23,31.8,25.6,20.1,17.3,13.6,8.4,78,61,46,29.87,29.78,13,6,0,0.00
2014-2-24,25.0,20.7,15.6,14.1,11.1,6.7,80,66,56,29.98,29.85,17,6,0,0.00
2014-2-25,24.4,17.3,12.2,17.2,7.6,3.2,98,65,57,29.98,29.80,12,5,0,0.00
2014-2-26,18.3,10.3,-0.6,7.6,-0.3,-5.5,85,62,45,29.91,29.43,11,5,0,0.00
2014-2-27,12.7,7.1,-5.1,9.1,-5.3,-14.7,92,58,33,30.04,29.31,18,5,0,0.00
2014-2-28,21.2,6.3,-10.5,10.1,-3.5,-14.9,84,65,41,30.16,29.94,7,2,0,0.00
2014-3-1,27.9,20.1,12.4,25.7,17.8,9.9,98,91,84,30.10,29.88,7,2,0,0.00
2014-3-2,15.4,9.7,0.7,13.7,2.9,-3.2,93,74,53,30.17,30.09,8,4,0,0.00
2014-3-3,17.6,4.8,-3.8,1.7,-5.1,-12.0,85,64,42,30.30,30.17,7,2,0,0.00
2014-3-4,22.8,13.7,-0.4,8.7,3.1,-4.8,84,63,42,30.24,30.04,6,1,0,0.00
2014-3-5,22.6,16.1,8.1,16.1,10.0,5.6,92,77,66,30.37,30.08,10,2,0,0.00
2014-3-6,25.9,15.3,4.8,11.6,6.6,1.0,90,70,48,30.37,30.01,8,3,0,0.00
2014-3-7,49.3,28.9,7.3,32.5,20.4,4.0,88,72,49,29.99,29.71,6,2,0,0.08
2014-3-8,39.2,29.7,16.9,35.5,25.9,16.4,98,86,70,29.99,29.72,11,4,0,0.00
2014-3-9,38.5,26.5,12.7,30.6,19.7,10.6,98,78,49,30.04,29.63,12,4,0,0.00
2014-3-10,55.0,42.9,34.0,40.0,36.6,30.8,98,80,55,29.63,29.33,9,4,0,0.00
2014-3-11,53.8,44.0,34.3,44.1,39.6,33.8,98,86,48,29.58,29.44,7,2,0,0.06
2014-3-12,33.4,22.0,9.0,32.9,2.0,-66.5,98,72,1,29.83,29.40,18,7,0,0.01
2014-3-13,28.4,15.2,1.9,17.9,7.8,1.5,98,75,44,29.97,29.81,11,4,0,0.00
2014-3-14,52.3,37.2,19.2,42.8,32.9,18.1,98,85,67,29.80,29.35,17,5,0,0.05
2014-3-15,40.8,35.5,23.9,39.2,27.7,12.8,98,75,43,30.11,29.49,13,6,0,0.00
2014-3-16,22.8,15.6,8.8,14.8,8.0,-0.4,98,74,46,30.27,30.07,12,5,0,0.00
2014-3-17,32.9,18.4,5.5,21.6,9.2,3.0,98,72,37,30.05,29.77,8,3,0,0.00
2014-3-18,45.7,33.0,20.3,38.7,28.6,19.8,98,86,56,29.88,29.73,7,2,0,0.00
2014-3-19,48.4,40.2,33.8,47.9,39.7,33.3,98,98,98,29.73,29.40,17,4,0,0.23
2014-3-20,37.8,35.5,29.1,36.5,32.6,27.6,98,90,73,29.87,29.59,16,6,0,0.00
2014-3-21,46.0,31.6,19.0,34.7,26.2,18.5,98,83,43,29.93,29.49,7,2,0,0.00
2014-3-22,40.6,35.3,25.2,38.5,34.4,22.4,98,96,84,30.02,29.44,9,4,0,0.14
2014-3-23,26.8,20.5,12.9,21.6,8.7,5.4,88,60,47,30.15,30.03,10,4,0,0.00
2014-3-24,34.2,23.6,13.6,19.8,10.9,4.3,98,60,37,30.14,29.88,14,3,0,0.00
2014-3-25,34.3,23.7,15.8,31.3,21.1,12.5,98,91,40,29.95,29.70,12,4,0,0.00
2014-3-26,36.7,20.8,5.9,23.2,10.6,5.2,98,69,34,30.13,29.96,8,2,0,0.00
2014-3-27,41.5,34.3,25.3,40.7,32.8,23.0,98,94,62,30.00,29.49,7,3,0,0.06
2014-3-28,51.6,44.4,37.4,51.1,43.9,36.9,98,98,98,30.00,29.35,14,5,0,0.00
2014-3-29,38.7,34.6,31.8,38.2,34.1,31.3,98,98,98,30.02,29.87,14,6,0,0.00
2014-3-30,50.2,36.5,26.6,31.1,25.1,17.6,98,69,33,29.99,29.88,9,4,0,0.00
2014-3-31,59.9,41.8,24.3,35.3,28.1,21.9,98,64,36,30.02,29.83,7,2,0,0.00
2014-4-1,64.9,46.5,36.7,47.0,35.8,26.7,98,68,42,29.83,29.48,18,6,0,0.00
2014-4-2,58.1,41.6,29.7,34.3,29.1,25.6,98,65,32,30.01,29.81,9,3,0,0.00
2014-4-3,41.7,36.7,33.1,41.2,31.7,22.8,98,83,60,30.01,29.66,10,4,0,0.09
2014-4-4,49.5,39.7,35.8,48.7,39.1,35.3,98,98,87,29.64,29.21,17,5,0,0.20
2014-4-5,49.6,38.3,30.2,36.7,29.8,23.5,98,75,39,29.98,29.50,14,6,0,0.00
2014-4-6,61.7,41.6,22.5,40.0,26.0,21.5,98,62,25,30.01,29.83,7,2,0,0.00
2014-4-7,54.0,41.7,30.4,48.2,34.5,26.5,98,78,47,29.85,29.27,8,2,0,0.37
2014-4-8,62.2,47.7,36.1,48.6,38.4,30.6,98,75,33,29.60,29.24,9,4,0,0.13
2014-4-9,61.5,46.7,35.2,41.9,32.5,19.6,98,65,22,29.79,29.60,8,3,0,0.00
2014-4-10,73.0,56.8,40.8,48.3,43.9,35.6,98,67,36,29.71,29.44,17,5,0,0.00
2014-4-11,72.7,54.2,35.1,47.5,35.8,23.4,98,59,20,29.83,29.69,8,2,0,0.00
2014-4-12,77.4,57.6,40.5,51.7,41.5,32.3,98,62,25,29.91,29.61,11,2,0,0.06
2014-4-13,79.0,64.3,46.8,69.9,58.4,46.3,98,83,55,29.72,29.41,12,4,0,0.01
2014-4-14,69.6,58.7,32.4,66.0,51.7,31.9,98,79,58,29.58,29.21,19,6,0,0.11
2014-4-15,36.0,28.9,22.5,31.3,23.5,12.8,98,82,47,30.05,29.57,14,5,0,0.03
2014-4-16,47.8,32.4,17.1,31.5,19.7,12.4,98,65,31,30.27,30.05,9,2,0,0.01
2014-4-17,68.4,46.2,30.0,43.4,34.3,18.9,98,68,32,30.22,30.02,10,3,0,0.00
2014-4-18,60.3,47.9,37.6,57.9,47.1,37.1,98,97,82,30.17,30.02,8,2,0,0.05
2014-4-19,61.3,44.3,31.5,45.7,34.4,28.2,98,73,30,30.29,30.13,8,3,0,0.00
2014-4-20,79.2,55.1,34.0,48.6,35.2,-31.3,98,61,1,30.18,29.90,6,1,0,0.00
2014-4-21,85.3,63.5,41.4,63.3,45.1,39.8,98,60,23,29.91,29.53,7,2,0,0.00
2014-4-22,61.7,51.4,40.3,61.1,48.5,39.8,98,91,65,29.73,29.45,19,6,0,0.03
2014-4-23,55.2,44.6,37.8,41.9,30.7,12.4,98,66,20,29.95,29.73,10,4,0,0.00
2014-4-24,63.3,46.2,30.6,34.6,23.4,13.0,98,46,18,30.02,29.72,7,2,0,0.00
2014-4-25,50.4,45.5,38.1,49.5,37.6,24.3,98,77,43,29.71,29.48,15,2,0,0.23
2014-4-26,53.1,44.3,36.5,47.7,39.8,34.8,98,86,55,29.96,29.58,9,4,0,0.00
2014-4-27,59.4,44.4,30.9,43.6,35.1,30.4,98,74,43,30.04,29.92,9,3,0,0.00
2014-4-28,57.4,49.7,40.5,44.3,38.0,32.3,98,67,41,29.95,29.65,14,5,0,0.00
2014-4-29,70.9,55.9,46.8,70.3,53.9,36.7,98,94,58,29.67,29.40,9,4,0,1.37
2014-4-30,70.2,56.1,51.1,69.6,55.6,50.6,98,98,98,29.69,29.56,6,3,0,0.18
2014-5-1,60.6,51.3,44.6,56.1,46.1,38.9,98,84,50,29.61,29.54,16,5,0,0.00
2014-5-2,58.6,50.1,45.1,58.0,49.6,44.6,98,98,98,29.62,29.54,10,4,0,0.05
2014-5-3,61.3,51.2,42.8,58.2,46.8,38.7,98,87,48,29.64,29.44,16,4,0,0.18
2014-5-4,57.4,48.9,39.4,53.5,40.0,32.5,98,75,43,29.92,29.64,14,3,0,0.00
2014-5-5,63.1,47.8,34.0,51.6,41.5,33.5,98,83,39,29.93,29.79,8,1,0,0.00
2014-5-6,64.8,49.6,36.0,48.4,39.2,33.6,98,71,39,29.94,29.84,9,3,0,0.45
2014-5-7,59.4,49.7,41.0,58.8,48.8,34.3,98,97,67,29.98,29.76,12,3,0,1.23
2014-5-8,88.5,62.1,48.0,70.8,56.1,-99.9,98,86,48,29.86,29.70,6,-10,0,0.12
2014-5-9,82.9,67.1,55.4,73.0,64.8,48.5,98,93,50,29.75,29.50,12,3,0,0.23
2014-5-10,73.2,62.9,52.2,63.8,48.8,38.1,98,66,29,29.80,29.60,12,5,0,0.00
2014-5-11,83.5,64.7,42.8,59.1,47.2,39.7,98,61,22,29.91,29.79,7,2,0,0.00
2014-5-12,75.4,64.0,57.2,74.8,62.5,46.1,98,95,54,29.87,29.77,4,1,0,0.67
2014-5-13,89.4,70.8,60.8,85.8,69.5,60.2,98,96,69,29.86,29.68,12,2,0,0.25
2014-5-14,68.2,59.1,51.8,67.6,58.5,51.3,98,98,98,29.97,29.81,10,3,0,0.20
2014-5-15,67.5,54.5,45.3,66.9,54.0,44.8,98,98,98,29.79,29.50,12,4,0,0.70
2014-5-16,56.1,46.3,34.0,50.0,41.9,33.5,98,87,51,29.85,29.78,8,2,0,0.00
2014-5-17,60.6,48.5,39.6,52.1,40.6,31.8,98,78,38,30.01,29.83,13,2,0,0.00
2014-5-18,70.2,54.2,35.1,53.9,37.9,33.6,98,62,27,30.07,30.00,10,2,0,0.00
2014-5-19,78.4,61.2,42.1,54.5,40.9,30.8,98,55,20,30.13,29.97,9,2,0,0.00
2014-5-20,72.0,61.7,54.3,64.1,56.5,45.0,98,85,55,30.03,29.71,7,2,0,0.01
2014-5-21,86.5,70.8,55.9,81.8,63.7,55.3,98,82,42,29.72,29.59,8,2,0,0.08
2014-5-22,72.7,65.1,53.6,67.2,57.1,45.7,98,78,46,29.89,29.64,14,4,0,0.00
2014-5-23,71.2,57.9,48.6,63.3,55.0,48.1,98,91,65,29.99,29.86,7,2,0,0.00
2014-5-24,84.9,65.2,46.0,66.0,48.7,40.8,98,63,22,30.04,29.94,6,1,0,0.00
2014-5-25,87.1,69.9,49.1,70.4,52.5,47.3,98,62,28,30.00,29.87,7,2,0,0.00
2014-5-26,90.0,78.9,63.0,65.8,53.5,-99.9,98,46,30,29.90,29.74,9,-24,0,0.00
2014-5-27,84.7,73.2,66.4,84.1,72.6,65.8,98,98,86,29.77,29.66,9,2,0,0.33
2014-5-28,69.8,63.4,54.5,69.2,62.8,53.9,98,98,98,29.94,29.73,4,1,0,0.25
2014-5-29,77.7,63.1,48.2,70.5,56.3,47.7,98,82,45,30.00,29.91,8,2,0,0.00
2014-5-30,85.5,68.5,49.3,70.1,55.3,48.8,98,69,34,30.05,29.96,5,1,0,0.00
2014-5-31,84.7,69.5,55.6,66.9,55.7,46.4,98,66,34,30.09,30.01,6,2,0,0.00
2014-6-1,91.6,70.8,48.7,69.6,55.9,45.8,98,67,28,30.06,29.83,5,1,0,0.00
2014-6-2,88.9,72.3,60.3,87.4,70.6,59.7,98,95,72,29.85,29.65,11,2,0,0.63
2014-6-3,82.2,73.2,58.6,78.6,62.9,51.8,98,75,40,29.74,29.61,17,4,0,0.00
2014-6-4,71.1,62.7,54.1,70.5,62.1,53.5,98,98,98,29.75,29.63,4,0,0,0.09
2014-6-5,79.2,63.4,49.3,60.1,49.7,36.9,98,67,23,29.80,29.68,9,2,0,0.01
2014-6-6,82.9,65.9,45.9,67.7,53.5,45.4,98,71,29,29.86,29.78,6,1,0,0.00
2014-6-7,86.4,70.7,51.3,74.2,52.5,37.0,98,61,19,29.90,29.73,9,1,0,0.00
2014-6-8,81.7,67.5,60.1,71.4,60.6,51.0,98,82,38,29.82,29.65,7,2,0,0.07
2014-6-9,86.4,69.7,55.6,75.1,57.3,47.4,98,72,28,29.85,29.75,5,2,0,0.00
2014-6-10,81.1,67.7,55.4,72.0,60.9,50.2,98,81,47,29.80,29.72,7,2,0,0.00
2014-6-11,82.4,70.4,59.4,81.8,69.3,51.9,98,96,66,29.72,29.52,5,1,0,0.12
2014-6-12,82.8,71.8,65.1,82.2,71.2,64.5,98,98,87,29.58,29.52,8,2,0,0.02
2014-6-13,70.3,64.4,50.7,69.2,58.5,49.4,98,83,53,29.84,29.56,10,4,0,0.00
2014-6-14,81.0,61.0,45.0,62.2,51.4,44.5,98,76,34,29.96,29.84,6,2,0,0.00
2014-6-15,82.9,67.4,48.4,71.7,57.5,47.9,98,76,35,29.99,29.79,7,2,0,0.00
2014-6-16,91.9,78.0,62.1,82.6,65.8,58.9,98,72,35,29.86,29.81,10,2,0,0.00
2014-6-17,91.9,79.5,64.6,87.6,72.4,62.5,98,82,42,29.83,29.62,19,4,0,0.00
2014-6-18,86.4,72.1,64.4,84.5,71.2,63.8,98,97,86,29.91,29.75,6,1,0,0.17
2014-6-19,78.8,69.6,61.3,78.2,69.0,60.7,98,98,98,29.98,29.82,8,2,0,0.01
2014-6-20,74.1,62.8,53.8,71.7,61.5,53.2,98,96,64,29.97,29.79,4,1,0,0.07
2014-6-21,86.4,70.7,59.5,68.8,56.2,49.2,98,66,34,29.82,29.71,5,1,0,0.00
2014-6-22,86.2,72.8,61.9,72.6,62.5,55.4,98,74,42,29.80,29.73,5,1,0,0.00
2014-6-23,82.8,72.1,57.6,82.2,71.5,57.0,98,98,98,29.77,29.68,4,0,0,0.09
2014-6-24,79.7,73.6,69.3,79.1,73.0,68.7,98,98,98,29.72,29.66,7,1,0,0.68
2014-6-25,80.2,71.9,64.2,78.6,71.3,63.6,98,98,91,29.83,29.70,7,2,0,0.00
2014-6-26,83.1,70.2,56.5,78.0,66.0,55.9,98,88,64,29.90,29.83,5,2,0,0.00
2014-6-27,88.7,73.2,55.2,73.3,61.2,52.8,98,70,39,29.96,29.90,5,1,0,0.00
2014-6-28,93.9,78.0,61.2,85.4,72.0,60.6,98,85,41,29.97,29.86,4,1,0,0.00
2014-6-29,90.5,80.5,72.1,88.6,78.5,71.5,98,94,64,29.89,29.74,9,2,0,0.11
2014-6-30,92.8,82.1,73.2,86.1,79.1,72.6,98,91,70,29.77,29.57,8,2,0,0.00
2014-7-1,88.9,77.9,69.4,81.1,71.4,64.4,98,84,46,29.57,29.36,12,4,0,0.46
2014-7-2,82.0,74.3,66.4,78.2,69.8,63.9,98,87,62,29.76,29.57,10,3,0,0.00
2014-7-3,66.0,64.7,62.1,65.4,64.1,61.5,98,98,98,29.86,29.74,5,1,0,0.37
2014-7-7,89.2,80.8,69.8,85.4,69.2,-99.9,98,73,49,29.55,29.46,11,-20,0,0.73
2014-7-8,79.9,71.7,64.8,79.3,70.2,64.2,98,95,76,29.56,29.35,10,2,0,1.08
2014-7-9,77.9,68.4,59.2,68.2,62.1,58.2,98,83,53,29.85,29.56,6,2,0,0.00
2014-7-10,79.5,67.5,53.8,71.9,62.2,53.2,98,85,54,30.03,29.85,5,1,0,0.00
2014-7-11,85.8,70.1,53.6,73.3,61.6,53.0,98,78,45,30.07,29.96,4,1,0,0.00
2014-7-12,90.5,75.4,58.5,79.3,66.1,57.9,98,78,39,30.01,29.72,11,1,0,0.00
2014-7-13,88.5,78.3,68.9,81.1,71.5,62.2,98,83,45,29.72,29.59,11,3,0,0.06
2014-7-14,85.1,71.4,64.4,76.2,64.3,-36.3,98,86,1,29.70,29.57,7,1,0,0.05
2014-7-15,74.8,66.5,59.5,67.4,61.3,52.6,98,85,48,29.69,29.51,10,3,0,0.00
2014-7-16,71.1,61.2,53.2,66.1,59.1,52.6,98,94,67,29.82,29.68,8,2,0,0.00
2014-7-17,81.1,67.6,54.0,69.4,56.7,53.0,98,73,41,29.97,29.82,7,2,0,0.00
2014-7-18,83.8,68.1,52.5,71.2,57.5,52.0,98,73,40,30.06,29.97,5,1,0,0.00
2014-7-19,77.4,67.9,59.5,76.8,67.3,58.9,98,98,97,29.99,29.85,6,1,0,0.04
2014-7-20,85.3,71.3,58.8,76.7,65.8,58.2,98,85,50,29.91,29.85,5,1,0,0.00
2014-7-21,90.9,73.3,60.3,78.0,66.0,59.7,98,81,42,29.96,29.88,7,1,0,0.00
2014-7-22,93.9,79.1,60.6,80.2,70.3,60.0,98,78,49,29.92,29.70,10,2,0,0.00
2014-7-23,81.9,70.6,58.8,80.8,69.5,58.2,98,96,80,29.88,29.65,9,3,0,0.02
2014-7-24,79.2,66.6,55.8,69.6,57.5,52.0,98,76,43,29.93,29.81,6,2,0,0.00
2014-7-25,81.9,67.4,51.3,68.5,58.3,50.8,98,77,43,29.90,29.73,7,2,0,0.00
2014-7-26,88.5,73.6,57.6,77.1,66.3,57.0,98,82,44,29.76,29.56,7,2,0,0.00
2014-7-27,88.7,73.6,61.9,81.3,71.3,61.3,98,94,52,29.57,29.36,8,2,0,1.41
2014-8-8,80.8,73.0,61.7,80.2,72.4,61.1,98,96,98,29.97,29.91,7,2,0,0.00
2014-8-9,85.1,69.8,55.8,84.5,69.2,55.2,98,98,98,29.97,29.88,10,2,0,0.00
2014-8-10,87.4,73.0,59.7,86.8,72.4,59.1,98,98,98,29.93,29.80,4,1,0,0.00
2014-8-11,75.7,68.7,63.1,75.1,68.1,62.5,98,98,98,29.82,29.37,10,2,0,4.74
2014-8-12,81.7,68.1,63.0,81.1,67.5,62.4,98,98,98,29.61,29.45,9,2,0,0.23
2014-8-13,78.8,67.2,56.7,78.2,62.9,56.0,98,88,49,29.76,29.61,11,4,0,0.00
2014-8-14,73.9,62.2,52.2,73.3,61.6,51.7,98,98,82,29.83,29.75,10,2,0,0.00
2014-8-15,67.3,53.8,48.7,66.7,53.3,48.2,98,98,98,29.85,29.79,5,1,0,0.00
2014-8-27,-200.0,0.0,200.0,-99.9,0.0,200.0,0,0,100,0.00,40.00,0,0,0,0.00
2014-8-28,76.1,61.4,53.2,56.2,50.5,48.7,99,66,47,28.41,28.33,5,2,0,0.00
2014-8-29,80.6,65.8,53.2,61.6,55.9,50.1,98,73,42,28.40,28.26,5,1,0,0.00
2014-8-30,87.4,75.7,63.3,70.1,66.5,61.6,99,75,52,28.28,28.09,8,2,0,0.00
2014-8-31,87.6,76.8,67.8,70.3,68.0,65.8,96,76,50,28.21,28.15,9,2,0,0.00
2014-9-1,85.6,74.0,66.7,73.1,69.9,66.4,99,89,62,28.18,27.97,11,1,0,0.89
2014-9-2,81.3,70.8,60.6,70.8,65.2,58.8,99,85,49,28.20,28.08,7,1,0,0.00
2014-9-3,84.6,70.2,56.7,65.6,61.1,56.4,99,76,50,28.30,28.20,5,1,0,0.00
2014-9-4,90.5,74.3,60.8,71.6,65.8,60.5,99,78,49,28.30,28.21,9,2,0,0.00
2014-9-5,95.7,79.2,68.9,75.8,71.3,68.6,99,79,51,28.28,28.07,9,3,0,0.86
2014-9-6,74.1,66.0,56.8,69.7,59.7,52.5,99,83,50,28.37,28.19,7,2,0,0.44
2014-9-7,78.6,63.5,50.2,58.1,53.9,49.9,99,75,41,28.48,28.37,6,1,0,0.00
2014-9-8,79.5,64.3,50.4,60.3,55.4,50.1,99,77,43,28.45,28.31,7,1,0,0.00
2014-9-9,84.0,68.4,57.4,66.8,60.4,57.1,99,79,43,28.32,28.22,6,1,0,0.00
2014-9-10,74.5,68.9,62.6,73.2,67.5,62.3,99,96,78,28.24,27.82,8,2,0,1.39
2014-9-11,73.2,57.6,50.5,72.4,52.4,48.2,99,83,70,28.44,27.84,14,4,0,0.00
2014-9-12,61.9,54.1,44.6,55.6,49.7,44.3,99,86,68,28.52,28.39,6,1,0,0.00
2014-9-13,59.5,51.6,41.4,51.6,47.3,41.1,99,86,56,28.57,28.32,14,2,0,0.38
2014-9-14,65.3,50.8,37.0,51.7,41.8,36.7,99,76,43,28.59,28.43,8,1,0,0.00
2014-9-15,64.6,52.9,42.3,55.3,49.1,42.0,99,88,63,28.44,28.29,3,0,0,0.08
2014-9-16,69.6,56.1,46.4,52.4,48.1,44.0,99,78,42,28.40,28.30,6,1,0,0.00
2014-9-17,71.2,54.7,40.3,49.6,45.8,40.0,99,76,40,28.31,28.21,5,1,0,0.00
2014-9-18,65.5,54.3,42.8,53.9,49.0,42.3,99,84,60,28.46,28.25,8,2,0,0.00
2014-9-19,70.0,53.0,36.0,52.8,45.4,35.7,99,79,42,28.51,28.29,5,1,0,0.00
2014-9-20,81.9,63.9,47.7,67.1,57.6,47.4,99,83,55,28.29,28.01,9,3,0,0.24
2014-9-21,69.1,60.9,49.3,64.5,57.1,46.5,99,89,54,28.24,27.83,13,4,0,0.16
2014-9-22,66.4,53.0,45.5,47.4,43.6,40.5,99,72,44,28.48,28.24,9,2,0,0.00
2014-9-23,78.3,57.5,41.2,54.8,48.6,40.9,99,77,41,28.60,28.48,6,1,0,0.00
2014-9-24,76.5,59.3,45.0,59.4,51.1,44.7,99,78,42,28.69,28.57,6,1,0,0.00
2014-9-25,76.8,60.3,46.8,59.1,53.4,46.5,99,81,51,28.60,28.49,4,1,0,0.00
2014-9-26,79.3,61.5,46.9,61.5,54.7,46.6,99,82,47,28.57,28.48,4,1,0,0.00
2014-9-27,80.2,63.0,48.9,62.1,55.0,48.6,99,79,41,28.56,28.41,5,1,0,0.00
2014-9-28,79.0,62.8,49.8,60.7,56.1,49.5,99,82,47,28.43,28.30,4,0,0,0.00
2014-9-29,82.6,64.4,49.5,62.4,56.0,49.2,99,79,43,28.29,28.11,5,1,0,0.00
2014-9-30,64.4,55.5,50.9,62.1,52.9,50.0,99,91,77,28.25,28.11,6,2,0,0.17
2014-10-1,72.7,60.1,52.5,58.3,55.1,52.2,99,86,57,28.31,28.24,3,0,0,0.00
2014-10-2,73.6,63.1,52.0,63.6,58.6,51.7,99,87,58,28.30,28.08,5,1,0,0.15
2014-10-3,68.2,62.4,53.1,65.5,59.2,48.9,99,90,68,28.07,27.73,14,3,0,0.36
2014-10-4,52.2,45.2,41.2,49.7,40.9,33.8,99,86,54,27.95,27.85,14,4,0,0.25
2014-10-5,54.5,47.3,41.2,42.5,38.8,34.4,99,75,49,28.00,27.93,14,3,0,0.00
2014-10-6,64.8,52.1,44.1,52.6,45.9,39.1,99,81,51,27.98,27.88,8,1,0,0.01
2014-10-7,62.1,50.5,41.9,52.5,47.2,41.6,99,89,68,28.04,27.93,7,1,0,0.00
2014-10-8,62.4,51.8,45.5,50.6,40.5,32.3,99,70,35,28.23,28.00,18,4,0,0.00
2014-10-9,62.8,48.2,36.9,42.0,37.9,34.2,99,73,36,28.34,28.22,9,2,0,0.00
2014-10-10,59.9,45.5,34.3,45.4,37.8,34.0,99,78,43,28.42,28.33,8,1,0,0.00
2014-10-11,61.5,44.5,32.7,41.5,35.6,32.3,99,77,36,28.49,28.39,5,1,0,0.00
2014-10-12,62.2,45.7,29.8,47.6,38.3,29.6,99,79,48,28.48,28.27,6,1,0,0.00
2014-10-13,68.7,59.1,45.5,66.6,58.2,45.2,99,97,90,28.28,28.08,4,0,0,0.14
2014-10-14,71.1,65.1,57.9,65.3,61.2,57.6,99,88,76,28.08,27.88,12,2,0,0.60
2014-10-15,68.9,59.6,52.7,58.3,56.1,52.4,99,89,63,28.06,27.96,4,1,0,0.02
2014-10-16,69.1,56.3,47.5,59.4,52.9,47.2,99,90,61,28.02,27.93,9,1,0,0.02
2014-10-17,64.2,56.5,52.2,54.4,52.2,48.6,99,86,63,27.93,27.75,12,4,0,0.00
2014-10-18,51.6,45.9,42.6,48.2,41.0,36.5,96,83,73,28.34,27.86,11,4,0,0.00
2014-10-19,54.7,42.6,30.2,37.0,33.7,30.0,99,74,41,28.44,28.21,5,1,0,0.00
2014-10-20,56.1,50.4,45.1,52.7,46.9,36.2,99,88,68,28.21,28.04,5,1,0,0.06
2014-10-21,48.0,45.8,43.9,47.3,42.5,38.1,99,88,80,28.45,28.12,9,3,0,0.01
2014-10-22,57.6,47.1,37.2,44.7,41.2,36.9,99,81,61,28.57,28.45,11,3,0,0.00
2014-10-23,63.5,44.4,32.0,43.3,38.1,31.8,99,82,43,28.52,28.33,6,1,0,0.00
2014-10-24,65.7,47.5,32.4,48.7,41.1,32.2,99,81,51,28.36,28.20,6,1,0,0.00
2014-10-25,68.4,55.6,42.8,54.3,44.0,30.6,99,70,27,28.19,27.96,14,4,0,0.00
2014-10-26,62.6,49.6,36.3,37.0,34.0,31.6,95,57,34,28.20,28.05,9,3,0,0.00
2014-10-27,70.3,49.7,30.7,58.0,42.7,30.5,99,80,42,28.21,27.95,6,1,0,0.00
2014-10-28,66.0,60.6,49.8,61.9,52.0,38.8,99,74,51,28.14,27.94,11,4,0,0.24
2014-10-29,52.2,47.0,42.3,40.2,38.2,36.5,87,72,59,28.32,28.14,9,4,0,0.00
2014-10-30,52.3,45.4,39.2,38.2,36.0,34.0,87,70,53,28.38,28.25,5,2,0,0.00
2014-10-31,45.7,40.9,34.7,43.4,38.4,34.1,99,91,76,28.36,28.13,16,4,0,0.36
2014-11-1,41.4,35.1,28.6,34.2,26.6,22.6,96,72,50,28.59,28.36,14,6,0,0.01
2014-11-2,50.7,35.1,24.1,25.6,22.5,17.9,93,64,28,28.67,28.49,10,2,0,0.00
2014-11-3,62.2,48.3,35.2,37.2,30.7,24.8,67,51,34,28.50,28.26,9,2,0,0.00
2014-11-4,57.0,52.2,44.4,51.2,41.1,32.4,99,68,47,28.26,28.11,12,4,0,0.04
2014-11-5,56.8,45.3,38.1,39.6,36.3,32.2,97,73,43,28.36,28.23,9,3,0,0.00
2014-11-6,50.4,43.9,38.3,46.7,41.6,34.2,99,92,83,28.24,27.97,11,2,0,0.08
2014-11-7,44.1,36.7,32.0,33.9,26.6,23.2,84,67,45,28.35,28.19,11,4,0,0.00
2014-11-8,43.7,39.2,36.1,40.2,34.8,27.3,98,84,70,28.18,27.94,9,3,0,0.08
2014-11-9,45.5,38.9,29.5,34.3,31.5,28.5,98,75,59,28.18,28.04,8,3,0,0.00
2014-11-10,59.0,45.9,38.8,40.7,37.2,32.6,87,73,50,28.21,28.00,6,2,0,0.00
2014-11-11,64.2,49.1,36.3,50.1,40.5,32.6,94,73,51,28.12,27.89,16,4,0,0.00
2014-11-12,38.5,33.9,30.2,32.6,23.6,21.2,79,66,59,28.44,28.13,16,6,0,0.00
2014-11-13,37.9,30.6,24.4,24.6,21.2,16.3,84,69,48,28.43,28.34,9,4,0,0.00
2014-11-14,34.9,29.4,22.6,24.6,21.6,19.3,96,74,54,28.54,28.40,12,4,0,0.00
2014-11-15,36.5,29.3,23.9,24.3,20.6,18.1,91,71,49,28.60,28.46,8,3,0,0.00
2014-11-16,37.0,31.2,27.7,30.1,23.7,19.5,99,74,56,28.46,28.14,8,2,0,0.00
2014-11-17,31.6,26.7,16.7,29.8,22.5,10.1,99,85,61,28.13,27.87,14,4,0,0.00
2014-11-18,23.5,16.7,12.0,12.1,9.0,6.9,82,72,58,28.33,28.02,19,8,0,0.00
2014-11-19,27.0,20.3,12.9,25.6,15.6,7.6,97,82,71,28.34,27.96,9,4,0,0.00
2014-12-1,25.0,21.1,19.4,12.5,11.0,10.3,71,62,53,28.88,28.80,8,4,0,0.00
2014-12-2,34.7,27.5,20.7,27.7,21.5,12.9,85,78,71,28.85,28.29,7,3,0,0.00
2014-12-3,39.9,32.7,24.3,31.4,25.4,19.7,96,76,50,28.54,28.26,17,6,0,0.00
2014-12-4,34.2,26.4,21.7,20.8,16.5,13.1,90,67,42,28.68,28.54,5,1,0,0.00
2014-12-5,39.0,34.2,28.0,32.8,28.9,20.5,87,81,73,28.61,28.42,4,1,0,0.00
2014-12-6,40.1,34.4,27.9,35.1,27.8,20.0,94,77,63,28.84,28.43,14,5,0,0.00
2014-12-7,36.5,28.9,20.3,27.3,18.4,13.9,96,67,40,28.95,28.69,6,3,0,0.00
2014-12-8,43.7,36.5,29.7,36.7,28.3,22.6,99,74,44,28.69,28.29,7,3,0,0.04
2014-12-9,38.5,35.9,32.5,36.6,34.4,30.0,99,94,86,28.47,28.29,9,3,0,0.06
2014-12-10,32.5,27.8,22.8,30.2,24.3,19.5,91,86,82,28.53,28.32,12,6,0,0.00
2014-12-11,39.2,29.0,20.3,25.2,16.9,8.1,85,62,34,28.32,28.24,12,6,0,0.00
2014-12-12,35.2,31.6,27.9,31.2,28.2,21.8,96,87,69,28.45,28.31,12,4,0,0.00
2014-12-13,42.1,37.6,32.2,41.6,36.3,30.9,99,95,84,28.42,28.23,11,5,0,0.00
2014-12-14,50.4,45.9,41.5,47.4,44.0,39.9,99,93,84,28.31,28.23,11,3,0,0.00
2014-12-15,48.4,43.9,38.7,44.7,42.8,38.4,99,96,83,28.31,28.08,6,2,0,0.04
2014-12-16,45.5,42.9,38.8,45.2,42.5,37.2,99,99,92,28.09,27.90,14,3,0,0.33
2014-12-17,38.1,31.4,27.0,36.0,26.2,19.9,94,81,73,28.37,28.10,17,8,0,0.00
2014-12-18,33.6,30.0,27.3,30.2,27.8,22.2,99,92,78,28.44,28.37,9,3,0,0.00
2014-12-19,33.6,27.1,23.0,25.6,22.0,20.2,94,81,60,28.56,28.43,8,2,0,0.00
2014-12-20,31.6,25.2,16.7,24.6,21.2,16.2,99,85,70,28.55,28.49,5,1,0,0.00
2014-12-21,37.4,29.3,21.0,26.4,24.0,19.7,97,81,64,28.56,28.43,6,1,0,0.00
2014-12-22,39.7,31.2,23.0,34.2,28.2,22.3,99,89,72,28.43,28.13,6,2,0,0.00
2014-12-23,46.6,41.7,35.1,46.3,41.2,33.6,99,98,94,28.12,28.01,6,2,0,0.05
2014-12-24,44.6,42.2,35.1,44.3,41.9,34.6,99,99,97,28.00,27.45,14,3,0,0.83
2014-12-25,38.8,36.8,32.4,35.8,33.0,30.0,97,86,77,28.35,27.70,12,6,0,0.00
2014-12-26,47.1,37.7,31.3,38.5,34.7,30.7,99,89,69,28.40,28.29,6,2,0,0.00
2014-12-27,47.7,43.0,38.1,45.9,40.8,33.1,99,92,74,28.35,28.15,11,4,0,0.01
2014-12-28,38.1,34.3,25.9,33.6,27.4,20.5,87,77,49,28.42,28.21,9,4,0,0.00
2014-12-29,31.1,24.7,14.7,22.5,16.4,10.9,96,71,50,28.64,28.42,7,2,0,0.00
2014-12-30,23.7,18.3,12.2,13.8,10.0,5.4,93,70,52,28.76,28.65,11,3,0,0.00
2014-12-31,23.0,16.2,8.4,10.7,6.0,1.7,88,65,49,28.71,28.28,19,6,0,0.00
2015-1-1,29.8,23.4,17.2,18.3,12.3,7.2,70,62,49,28.28,28.11,17,7,0,0.00
2015-1-2,35.2,28.8,23.7,22.0,19.3,17.2,89,68,52,28.58,28.28,10,3,0,0.00